OI48 weather

Tesar Heliport
Clyde, Ohio, United States

Public forecast

Using degrees Fahrenheit for public forecast. Weather courtesy of forecast.io.

Closest aviation weather report (METAR) to Tesar Heliport

Closest report is Carl R Keller Field, 14.7 nm (27.2 km) NNE. Retrieved 2020/06/04 23:55 UTC (19 minutes ago):

KPCW 042355Z AUTO 07006KT 10SM CLR 25/19 A2978 RMK AO2

Closest aviation forecast (TAF) to Tesar Heliport

Closest forecast is Mansfield Lahm Regional Airport, 34.6 nm (64.0 km) SE. Retrieved 2020-06-05 00:42 UTC (0 seconds ago):

TAF KMFD 042340Z 0500/0524 19004KT P6SM FEW015 BKN150 FM051000 21004KT 5SM BR SCT035 SCT120 FM051230 23004KT P6SM SCT035 PROB30 0518/0522 2SM -TSRA BKN025CB